Chester, MT (59522)

5:57 AM MDT on October 20, 2014 (GMT -0600)
Liberty County Courthouse | Change Station
CLOSE
Current Station
Personal Weather Station
Location: Chester, MT
Elevation: 3165 ft
Nearby Weather Stations

Elev 3165 ft 48.51 °N, 110.96 °W | Updated 7 seconds ago

Clear
Clear
29.8 °F
Feels Like 30 °F
N
2.0
Wind Variable Wind from North
Gusts 3.0 mph

Today
High -- | Low -- °F
--% Chance of Precip.
Yesterday
High -- | Low -- °F
Precip. -- in
7:51 AM 6:24 PM
Waning Crescent, 11% visible
Pressure 29.84 in
Visibility 10.0 miles
Clouds Clear
Windchill 30 °F
Dew Point 26 °F
Humidity 84%
Rainfall 0.00 in
Snow Depth Not available.
UV 0.0 out of 12
Pollen 3.60 out of 12
Air Quality Not available.
Flu Activity No Activity
METAR KHVR 201053Z AUTO 11003KT 10SM CLR 03/02 A2984 RMK AO2 SLP103 T00330022

More Conditions Fewer Conditions

Pressure 29.84 in
Visibility 10.0 miles
Clouds Clear
Windchill 30 °F
Dew Point 26 °F
Humidity 84%
Rainfall 0.00 in
Snow Depth Not available.
UV 0.0 out of 12
Pollen 3.60 out of 12
Air Quality Not available.
Flu Activity No Activity
METAR KHVR 201053Z AUTO 11003KT 10SM CLR 03/02 A2984 RMK AO2 SLP103 T00330022

More Conditions Fewer Conditions

10-Day Weather Forecast

Almanac

Astronomy

Oct. 20, 2014 Rise Set
Actual Time 7:51 AM MDT 6:24 PM MDT
Civil Twilight 7:19 AM MDT 6:56 PM MDT
Nautical Twilight 6:43 AM MDT 7:33 PM MDT
Astronomical Twilight 6:06 AM MDT 8:09 PM MDT
Moon 4:28 AM MDT 5:01 PM MDT
Length of Visible Light 11h 37m
Length of Day
10h 33m
Waning Crescent, 11% of the Moon is Illuminated
Today
Waning Crescent
Oct 23
New
Oct 30
First Quarter
Nov 6
Full
Nov 14
Last Quarter

Today's Extremes

State Highs State Lows

Community

WunderPhotos

Upload Photos

1,763,341 photos uploaded!

Nearby

Snow Depth

Station Depth Elevation
Rocky Boy 0 in 4700 ft
Badger Pass 0 in 6900 ft
Pike Creek 0 in 5930 ft
Stringer Creek 0 in 6550 ft
Onion Park 1 in 7410 ft

Earthquake Activity

City Distance Mag. Time & Date
No recent earthquake activity has been reported nearby.
Minimum magnitude displayed is 2.5.

Coastal Water Temperatures

Place Temperature
No Stations Reporting

Nearby Weather Stations